sensor_id;sensor_type;location;lat;lon;timestamp;temperature;humidity
15625;DHT22;7912;51.376;6.126;2022-10-31T00:00:27;18.80;99.90
15625;DHT22;7912;51.376;6.126;2022-10-31T00:02:55;18.80;99.90
15625;DHT22;7912;51.376;6.126;2022-10-31T00:05:23;18.80;99.90
15625;DHT22;7912;51.376;6.126;2022-10-31T00:07:54;18.80;99.90
15625;DHT22;7912;51.376;6.126;2022-10-31T00:10:21;18.80;99.90
15625;DHT22;7912;51.376;6.126;2022-10-31T00:12:49;18.80;99.90
15625;DHT22;7912;51.376;6.126;2022-10-31T00:15:18;18.70;99.90
15625;DHT22;7912;51.376;6.126;2022-10-31T00:17:45;18.70;99.90
15625;DHT22;7912;51.376;6.126;2022-10-31T00:20:13;18.70;99.90
15625;DHT22;7912;51.376;6.126;2022-10-31T00:22:40;18.70;99.90
15625;DHT22;7912;51.376;6.126;2022-10-31T00:25:09;18.60;99.90
15625;DHT22;7912;51.376;6.126;2022-10-31T00:27:37;18.60;99.90
15625;DHT22;7912;51.376;6.126;2022-10-31T00:30:05;18.50;99.90
15625;DHT22;7912;51.376;6.126;2022-10-31T00:32:33;18.40;99.90
15625;DHT22;7912;51.376;6.126;2022-10-31T00:35:00;18.40;99.90
15625;DHT22;7912;51.376;6.126;2022-10-31T00:37:28;18.30;99.90
15625;DHT22;7912;51.376;6.126;2022-10-31T00:39:55;18.30;99.90
15625;DHT22;7912;51.376;6.126;2022-10-31T00:42:23;18.20;99.90
15625;DHT22;7912;51.376;6.126;2022-10-31T00:44:50;18.10;99.90
15625;DHT22;7912;51.376;6.126;2022-10-31T00:47:18;18.10;99.90
15625;DHT22;7912;51.376;6.126;2022-10-31T00:49:46;18.00;99.90
15625;DHT22;7912;51.376;6.126;2022-10-31T00:52:13;17.90;99.90
15625;DHT22;7912;51.376;6.126;2022-10-31T00:54:41;17.90;99.90
15625;DHT22;7912;51.376;6.126;2022-10-31T00:57:09;17.80;99.90
15625;DHT22;7912;51.376;6.126;2022-10-31T00:59:37;17.70;99.90
15625;DHT22;7912;51.376;6.126;2022-10-31T01:02:05;17.70;99.90
15625;DHT22;7912;51.376;6.126;2022-10-31T01:04:32;17.60;99.90
15625;DHT22;7912;51.376;6.126;2022-10-31T01:07:00;17.60;99.90
15625;DHT22;7912;51.376;6.126;2022-10-31T01:09:28;17.60;99.90
15625;DHT22;7912;51.376;6.126;2022-10-31T01:11:56;17.50;99.90
15625;DHT22;7912;51.376;6.126;2022-10-31T01:14:24;17.50;99.90
15625;DHT22;7912;51.376;6.126;2022-10-31T01:16:52;17.50;99.90
15625;DHT22;7912;51.376;6.126;2022-10-31T01:19:19;17.40;99.90
15625;DHT22;7912;51.376;6.126;2022-10-31T01:21:47;17.40;99.90
15625;DHT22;7912;51.376;6.126;2022-10-31T01:24:14;17.40;99.90
15625;DHT22;7912;51.376;6.126;2022-10-31T01:26:42;17.40;99.90
15625;DHT22;7912;51.376;6.126;2022-10-31T01:29:10;17.30;99.90
15625;DHT22;7912;51.376;6.126;2022-10-31T01:31:39;17.30;99.90
15625;DHT22;7912;51.376;6.126;2022-10-31T01:34:06;17.30;99.90
15625;DHT22;7912;51.376;6.126;2022-10-31T01:36:37;17.30;99.90
15625;DHT22;7912;51.376;6.126;2022-10-31T01:39:13;17.30;99.90
15625;DHT22;7912;51.376;6.126;2022-10-31T01:41:45;17.30;99.90
15625;DHT22;7912;51.376;6.126;2022-10-31T01:49:26;17.20;99.90
15625;DHT22;7912;51.376;6.126;2022-10-31T01:52:24;17.20;99.90
15625;DHT22;7912;51.376;6.126;2022-10-31T01:55:01;17.20;99.90
15625;DHT22;7912;51.376;6.126;2022-10-31T02:01:43;17.20;99.90
15625;DHT22;7912;51.376;6.126;2022-10-31T02:04:11;17.20;99.90
15625;DHT22;7912;51.376;6.126;2022-10-31T02:06:47;17.20;99.90
15625;DHT22;7912;51.376;6.126;2022-10-31T02:09:31;17.20;99.90
15625;DHT22;7912;51.376;6.126;2022-10-31T02:12:01;17.20;99.90
15625;DHT22;7912;51.376;6.126;2022-10-31T02:14:31;17.20;99.90
15625;DHT22;7912;51.376;6.126;2022-10-31T02:17:00;17.10;99.90
15625;DHT22;7912;51.376;6.126;2022-10-31T02:22:22;17.10;99.90
15625;DHT22;7912;51.376;6.126;2022-10-31T02:25:28;17.10;99.90
15625;DHT22;7912;51.376;6.126;2022-10-31T02:32:09;17.10;99.90
15625;DHT22;7912;51.376;6.126;2022-10-31T02:34:58;17.00;99.90
15625;DHT22;7912;51.376;6.126;2022-10-31T02:37:51;16.90;99.90
15625;DHT22;7912;51.376;6.126;2022-10-31T02:40:33;16.90;99.90
15625;DHT22;7912;51.376;6.126;2022-10-31T02:43:27;16.90;99.90
15625;DHT22;7912;51.376;6.126;2022-10-31T02:52:31;16.80;99.90
15625;DHT22;7912;51.376;6.126;2022-10-31T03:00:43;16.60;99.90
15625;DHT22;7912;51.376;6.126;2022-10-31T03:03:40;16.60;99.90
15625;DHT22;7912;51.376;6.126;2022-10-31T03:06:44;16.60;99.90
15625;DHT22;7912;51.376;6.126;2022-10-31T03:09:37;16.50;99.90
15625;DHT22;7912;51.376;6.126;2022-10-31T03:13:13;16.50;99.90
15625;DHT22;7912;51.376;6.126;2022-10-31T03:15:50;16.40;99.90
15625;DHT22;7912;51.376;6.126;2022-10-31T03:18:32;16.40;99.90
15625;DHT22;7912;51.376;6.126;2022-10-31T03:23:44;16.30;99.90
15625;DHT22;7912;51.376;6.126;2022-10-31T03:26:14;16.20;99.90
15625;DHT22;7912;51.376;6.126;2022-10-31T03:28:51;16.20;99.90
15625;DHT22;7912;51.376;6.126;2022-10-31T03:31:27;16.10;99.90
15625;DHT22;7912;51.376;6.126;2022-10-31T03:34:00;16.10;99.90
15625;DHT22;7912;51.376;6.126;2022-10-31T03:36:34;16.10;99.90
15625;DHT22;7912;51.376;6.126;2022-10-31T03:39:08;16.10;99.90
15625;DHT22;7912;51.376;6.126;2022-10-31T03:41:43;16.00;99.90
15625;DHT22;7912;51.376;6.126;2022-10-31T03:44:17;16.00;99.90
15625;DHT22;7912;51.376;6.126;2022-10-31T03:46:49;16.00;99.90
15625;DHT22;7912;51.376;6.126;2022-10-31T03:49:17;16.00;99.90
15625;DHT22;7912;51.376;6.126;2022-10-31T03:52:05;16.00;99.90
15625;DHT22;7912;51.376;6.126;2022-10-31T03:54:52;15.90;99.90
15625;DHT22;7912;51.376;6.126;2022-10-31T03:57:49;15.90;99.90
15625;DHT22;7912;51.376;6.126;2022-10-31T04:00:22;15.90;99.90
15625;DHT22;7912;51.376;6.126;2022-10-31T04:03:14;15.90;99.90
15625;DHT22;7912;51.376;6.126;2022-10-31T04:05:49;15.80;99.90
15625;DHT22;7912;51.376;6.126;2022-10-31T04:08:21;15.90;99.90
15625;DHT22;7912;51.376;6.126;2022-10-31T04:10:56;15.80;99.90
15625;DHT22;7912;51.376;6.126;2022-10-31T04:13:29;15.80;99.90
15625;DHT22;7912;51.376;6.126;2022-10-31T04:15:58;15.80;99.90
15625;DHT22;7912;51.376;6.126;2022-10-31T04:18:26;15.70;99.90
15625;DHT22;7912;51.376;6.126;2022-10-31T04:21:06;15.70;99.90
15625;DHT22;7912;51.376;6.126;2022-10-31T04:23:36;15.70;99.90
15625;DHT22;7912;51.376;6.126;2022-10-31T04:26:04;15.60;99.90
15625;DHT22;7912;51.376;6.126;2022-10-31T04:28:32;15.60;99.90
15625;DHT22;7912;51.376;6.126;2022-10-31T04:31:00;15.60;99.90
15625;DHT22;7912;51.376;6.126;2022-10-31T04:33:28;15.60;99.90
15625;DHT22;7912;51.376;6.126;2022-10-31T04:35:56;15.60;99.90
15625;DHT22;7912;51.376;6.126;2022-10-31T04:38:24;15.50;99.90
15625;DHT22;7912;51.376;6.126;2022-10-31T04:40:52;15.50;99.90
15625;DHT22;7912;51.376;6.126;2022-10-31T04:43:20;15.50;99.90
15625;DHT22;7912;51.376;6.126;2022-10-31T04:45:48;15.40;99.90
15625;DHT22;7912;51.376;6.126;2022-10-31T04:48:16;15.40;99.90
15625;DHT22;7912;51.376;6.126;2022-10-31T04:50:44;15.40;99.90
15625;DHT22;7912;51.376;6.126;2022-10-31T04:53:12;15.40;99.90
15625;DHT22;7912;51.376;6.126;2022-10-31T04:55:40;15.40;99.90
15625;DHT22;7912;51.376;6.126;2022-10-31T04:58:08;15.30;99.90
15625;DHT22;7912;51.376;6.126;2022-10-31T05:00:35;15.30;99.90
15625;DHT22;7912;51.376;6.126;2022-10-31T05:03:03;15.30;99.90
15625;DHT22;7912;51.376;6.126;2022-10-31T05:05:31;15.20;99.90
15625;DHT22;7912;51.376;6.126;2022-10-31T05:07:59;15.30;99.90
15625;DHT22;7912;51.376;6.126;2022-10-31T05:10:29;15.20;99.90
15625;DHT22;7912;51.376;6.126;2022-10-31T05:13:00;15.20;99.90
15625;DHT22;7912;51.376;6.126;2022-10-31T05:15:29;15.20;99.90
15625;DHT22;7912;51.376;6.126;2022-10-31T05:17:57;15.20;99.90
15625;DHT22;7912;51.376;6.126;2022-10-31T05:20:29;15.20;99.90
15625;DHT22;7912;51.376;6.126;2022-10-31T05:22:58;15.10;99.90
15625;DHT22;7912;51.376;6.126;2022-10-31T05:25:27;15.10;99.90
15625;DHT22;7912;51.376;6.126;2022-10-31T05:27:56;15.10;99.90
15625;DHT22;7912;51.376;6.126;2022-10-31T05:30:27;15.10;99.90
15625;DHT22;7912;51.376;6.126;2022-10-31T05:32:57;15.00;99.90
15625;DHT22;7912;51.376;6.126;2022-10-31T05:35:29;15.00;99.90
15625;DHT22;7912;51.376;6.126;2022-10-31T05:38:00;15.00;99.90
15625;DHT22;7912;51.376;6.126;2022-10-31T05:40:28;15.00;99.90
15625;DHT22;7912;51.376;6.126;2022-10-31T05:42:57;14.90;99.90
15625;DHT22;7912;51.376;6.126;2022-10-31T05:45:28;14.90;99.90
15625;DHT22;7912;51.376;6.126;2022-10-31T05:47:58;14.90;99.90
15625;DHT22;7912;51.376;6.126;2022-10-31T05:50:29;14.80;99.90
15625;DHT22;7912;51.376;6.126;2022-10-31T05:53:02;14.80;99.90
15625;DHT22;7912;51.376;6.126;2022-10-31T05:55:31;14.80;99.90
15625;DHT22;7912;51.376;6.126;2022-10-31T05:57:59;14.80;99.90
15625;DHT22;7912;51.376;6.126;2022-10-31T06:00:28;14.80;99.90
15625;DHT22;7912;51.376;6.126;2022-10-31T06:03:03;14.80;99.90
15625;DHT22;7912;51.376;6.126;2022-10-31T06:05:32;14.70;99.90
15625;DHT22;7912;51.376;6.126;2022-10-31T06:08:00;14.70;99.90
15625;DHT22;7912;51.376;6.126;2022-10-31T06:10:29;14.70;99.90
15625;DHT22;7912;51.376;6.126;2022-10-31T06:12:56;14.80;99.90
15625;DHT22;7912;51.376;6.126;2022-10-31T06:15:23;14.80;99.90
15625;DHT22;7912;51.376;6.126;2022-10-31T06:18:01;14.80;99.90
15625;DHT22;7912;51.376;6.126;2022-10-31T06:20:33;14.80;99.90
15625;DHT22;7912;51.376;6.126;2022-10-31T06:23:01;14.80;99.90
15625;DHT22;7912;51.376;6.126;2022-10-31T06:25:29;14.80;99.90
15625;DHT22;7912;51.376;6.126;2022-10-31T06:27:56;14.80;99.90
15625;DHT22;7912;51.376;6.126;2022-10-31T06:30:24;14.80;99.90
15625;DHT22;7912;51.376;6.126;2022-10-31T06:32:52;14.80;99.90
15625;DHT22;7912;51.376;6.126;2022-10-31T06:35:19;14.80;99.90
15625;DHT22;7912;51.376;6.126;2022-10-31T06:37:54;14.80;99.90
15625;DHT22;7912;51.376;6.126;2022-10-31T06:40:22;14.80;99.90
15625;DHT22;7912;51.376;6.126;2022-10-31T06:43:00;14.80;99.90
15625;DHT22;7912;51.376;6.126;2022-10-31T06:45:28;14.70;99.90
15625;DHT22;7912;51.376;6.126;2022-10-31T06:47:56;14.70;99.90
15625;DHT22;7912;51.376;6.126;2022-10-31T06:50:44;14.70;99.90
15625;DHT22;7912;51.376;6.126;2022-10-31T06:53:12;14.70;99.90
15625;DHT22;7912;51.376;6.126;2022-10-31T06:55:41;14.70;99.90
15625;DHT22;7912;51.376;6.126;2022-10-31T06:58:10;14.70;99.90
15625;DHT22;7912;51.376;6.126;2022-10-31T07:00:38;14.70;99.90
15625;DHT22;7912;51.376;6.126;2022-10-31T07:03:11;14.70;99.90
15625;DHT22;7912;51.376;6.126;2022-10-31T07:05:58;14.70;99.90
15625;DHT22;7912;51.376;6.126;2022-10-31T07:08:26;14.70;99.90
15625;DHT22;7912;51.376;6.126;2022-10-31T07:10:55;14.70;99.90
15625;DHT22;7912;51.376;6.126;2022-10-31T07:13:26;14.70;99.90
15625;DHT22;7912;51.376;6.126;2022-10-31T07:15:55;14.70;99.90
15625;DHT22;7912;51.376;6.126;2022-10-31T07:18:27;14.70;99.90
15625;DHT22;7912;51.376;6.126;2022-10-31T07:20:56;14.70;99.90
15625;DHT22;7912;51.376;6.126;2022-10-31T07:23:23;14.80;99.90
15625;DHT22;7912;51.376;6.126;2022-10-31T07:25:59;14.80;99.90
15625;DHT22;7912;51.376;6.126;2022-10-31T07:28:27;14.80;99.90
15625;DHT22;7912;51.376;6.126;2022-10-31T07:30:56;14.90;99.90
15625;DHT22;7912;51.376;6.126;2022-10-31T07:33:24;14.90;99.90
15625;DHT22;7912;51.376;6.126;2022-10-31T07:35:55;15.00;99.90
15625;DHT22;7912;51.376;6.126;2022-10-31T07:38:22;15.00;99.90
15625;DHT22;7912;51.376;6.126;2022-10-31T07:40:51;15.00;99.90
15625;DHT22;7912;51.376;6.126;2022-10-31T07:43:22;15.10;99.90
15625;DHT22;7912;51.376;6.126;2022-10-31T07:45:51;15.10;99.90
15625;DHT22;7912;51.376;6.126;2022-10-31T07:48:19;15.20;99.90
15625;DHT22;7912;51.376;6.126;2022-10-31T07:50:47;15.20;99.90
15625;DHT22;7912;51.376;6.126;2022-10-31T07:53:15;15.30;99.90
15625;DHT22;7912;51.376;6.126;2022-10-31T07:55:43;15.30;99.90
15625;DHT22;7912;51.376;6.126;2022-10-31T07:58:15;15.40;99.90
15625;DHT22;7912;51.376;6.126;2022-10-31T08:00:45;15.40;99.90
15625;DHT22;7912;51.376;6.126;2022-10-31T08:03:16;15.50;99.90
15625;DHT22;7912;51.376;6.126;2022-10-31T08:05:45;15.50;99.90
15625;DHT22;7912;51.376;6.126;2022-10-31T08:08:13;15.60;99.90
15625;DHT22;7912;51.376;6.126;2022-10-31T08:10:42;15.70;99.90
15625;DHT22;7912;51.376;6.126;2022-10-31T08:13:11;15.70;99.90
15625;DHT22;7912;51.376;6.126;2022-10-31T08:15:40;15.80;99.90
15625;DHT22;7912;51.376;6.126;2022-10-31T08:18:13;15.90;99.90
15625;DHT22;7912;51.376;6.126;2022-10-31T08:20:43;15.90;99.90
15625;DHT22;7912;51.376;6.126;2022-10-31T08:23:16;16.00;99.90
15625;DHT22;7912;51.376;6.126;2022-10-31T08:25:43;16.10;99.90
15625;DHT22;7912;51.376;6.126;2022-10-31T08:28:11;16.20;99.90
15625;DHT22;7912;51.376;6.126;2022-10-31T08:30:39;16.30;99.90
15625;DHT22;7912;51.376;6.126;2022-10-31T08:33:13;16.30;99.90
15625;DHT22;7912;51.376;6.126;2022-10-31T08:35:44;16.40;99.90
15625;DHT22;7912;51.376;6.126;2022-10-31T08:38:12;16.50;99.90
15625;DHT22;7912;51.376;6.126;2022-10-31T08:40:48;16.60;99.90
15625;DHT22;7912;51.376;6.126;2022-10-31T08:43:18;16.70;99.90
15625;DHT22;7912;51.376;6.126;2022-10-31T08:45:49;16.80;99.90
15625;DHT22;7912;51.376;6.126;2022-10-31T08:48:18;16.90;99.90
15625;DHT22;7912;51.376;6.126;2022-10-31T08:50:48;17.00;99.90
15625;DHT22;7912;51.376;6.126;2022-10-31T08:53:18;17.10;99.90
15625;DHT22;7912;51.376;6.126;2022-10-31T08:55:48;17.20;99.90
15625;DHT22;7912;51.376;6.126;2022-10-31T08:58:18;17.30;99.90
15625;DHT22;7912;51.376;6.126;2022-10-31T09:00:50;17.40;99.90
15625;DHT22;7912;51.376;6.126;2022-10-31T09:03:22;17.50;99.90
15625;DHT22;7912;51.376;6.126;2022-10-31T09:05:55;17.60;99.90
15625;DHT22;7912;51.376;6.126;2022-10-31T09:08:29;17.70;99.90
15625;DHT22;7912;51.376;6.126;2022-10-31T09:10:58;17.80;99.90
15625;DHT22;7912;51.376;6.126;2022-10-31T09:13:26;17.90;99.90
15625;DHT22;7912;51.376;6.126;2022-10-31T09:16:02;18.00;99.90
15625;DHT22;7912;51.376;6.126;2022-10-31T09:18:31;18.10;99.90
15625;DHT22;7912;51.376;6.126;2022-10-31T09:21:00;18.20;99.90
15625;DHT22;7912;51.376;6.126;2022-10-31T09:23:30;18.30;99.90
15625;DHT22;7912;51.376;6.126;2022-10-31T09:26:00;18.40;99.90
15625;DHT22;7912;51.376;6.126;2022-10-31T09:28:29;18.40;99.90
15625;DHT22;7912;51.376;6.126;2022-10-31T09:30:59;18.50;99.90
15625;DHT22;7912;51.376;6.126;2022-10-31T09:33:28;18.60;99.90
15625;DHT22;7912;51.376;6.126;2022-10-31T09:35:58;18.70;99.90
15625;DHT22;7912;51.376;6.126;2022-10-31T09:38:26;18.80;99.90
15625;DHT22;7912;51.376;6.126;2022-10-31T09:44:11;19.00;99.90
15625;DHT22;7912;51.376;6.126;2022-10-31T09:46:55;19.20;99.90
15625;DHT22;7912;51.376;6.126;2022-10-31T09:49:37;19.30;99.90
15625;DHT22;7912;51.376;6.126;2022-10-31T09:52:40;19.40;99.90
15625;DHT22;7912;51.376;6.126;2022-10-31T09:55:24;19.50;99.90
15625;DHT22;7912;51.376;6.126;2022-10-31T09:58:04;19.60;99.90
15625;DHT22;7912;51.376;6.126;2022-10-31T10:00:34;19.70;99.90
15625;DHT22;7912;51.376;6.126;2022-10-31T10:03:42;19.80;99.90
15625;DHT22;7912;51.376;6.126;2022-10-31T10:06:24;19.80;99.90
15625;DHT22;7912;51.376;6.126;2022-10-31T10:08:58;19.90;99.90
15625;DHT22;7912;51.376;6.126;2022-10-31T10:12:36;20.00;99.90
15625;DHT22;7912;51.376;6.126;2022-10-31T10:14:59;20.20;99.90
15625;DHT22;7912;51.376;6.126;2022-10-31T10:26:43;20.90;99.90
15625;DHT22;7912;51.376;6.126;2022-10-31T10:29:33;21.00;99.90
15625;DHT22;7912;51.376;6.126;2022-10-31T10:32:22;21.10;99.90
15625;DHT22;7912;51.376;6.126;2022-10-31T10:34:57;21.20;99.90
15625;DHT22;7912;51.376;6.126;2022-10-31T10:37:37;21.30;99.90
15625;DHT22;7912;51.376;6.126;2022-10-31T10:40:18;21.40;99.90
15625;DHT22;7912;51.376;6.126;2022-10-31T10:52:21;21.60;99.90
15625;DHT22;7912;51.376;6.126;2022-10-31T10:57:53;21.60;99.90
15625;DHT22;7912;51.376;6.126;2022-10-31T11:02:58;21.60;99.90
15625;DHT22;7912;51.376;6.126;2022-10-31T11:05:48;21.60;99.90
15625;DHT22;7912;51.376;6.126;2022-10-31T11:08:29;21.50;99.90
15625;DHT22;7912;51.376;6.126;2022-10-31T11:13:30;21.50;99.90
15625;DHT22;7912;51.376;6.126;2022-10-31T11:16:03;21.50;99.90
15625;DHT22;7912;51.376;6.126;2022-10-31T11:18:38;21.50;99.90
15625;DHT22;7912;51.376;6.126;2022-10-31T11:21:28;21.50;99.90
15625;DHT22;7912;51.376;6.126;2022-10-31T11:26:41;21.40;99.90
15625;DHT22;7912;51.376;6.126;2022-10-31T11:29:21;21.40;99.90
15625;DHT22;7912;51.376;6.126;2022-10-31T11:31:54;21.40;99.90
15625;DHT22;7912;51.376;6.126;2022-10-31T11:37:26;21.50;99.90
15625;DHT22;7912;51.376;6.126;2022-10-31T11:39:58;21.40;99.90
15625;DHT22;7912;51.376;6.126;2022-10-31T11:42:49;21.40;99.90
15625;DHT22;7912;51.376;6.126;2022-10-31T11:45:29;21.40;99.90
15625;DHT22;7912;51.376;6.126;2022-10-31T11:47:59;21.30;99.90
15625;DHT22;7912;51.376;6.126;2022-10-31T11:50:40;21.30;99.90
15625;DHT22;7912;51.376;6.126;2022-10-31T11:53:17;21.30;99.90
15625;DHT22;7912;51.376;6.126;2022-10-31T11:55:47;21.30;99.90
15625;DHT22;7912;51.376;6.126;2022-10-31T11:58:32;21.30;99.90
15625;DHT22;7912;51.376;6.126;2022-10-31T12:00:59;21.30;99.90
15625;DHT22;7912;51.376;6.126;2022-10-31T12:06:41;21.40;99.90
15625;DHT22;7912;51.376;6.126;2022-10-31T12:09:23;21.40;99.90
15625;DHT22;7912;51.376;6.126;2022-10-31T12:15:29;21.50;99.90
15625;DHT22;7912;51.376;6.126;2022-10-31T12:18:08;21.60;99.90
15625;DHT22;7912;51.376;6.126;2022-10-31T12:21:23;21.70;99.90
15625;DHT22;7912;51.376;6.126;2022-10-31T12:30:19;21.80;99.90
15625;DHT22;7912;51.376;6.126;2022-10-31T12:32:59;21.80;99.90
15625;DHT22;7912;51.376;6.126;2022-10-31T12:35:45;21.80;99.90
15625;DHT22;7912;51.376;6.126;2022-10-31T12:44:38;21.90;99.90
15625;DHT22;7912;51.376;6.126;2022-10-31T12:56:12;22.00;99.90
15625;DHT22;7912;51.376;6.126;2022-10-31T12:59:30;22.00;99.90
15625;DHT22;7912;51.376;6.126;2022-10-31T13:05:23;22.00;99.90
15625;DHT22;7912;51.376;6.126;2022-10-31T13:11:21;22.00;99.90
15625;DHT22;7912;51.376;6.126;2022-10-31T13:16:55;22.00;99.90
15625;DHT22;7912;51.376;6.126;2022-10-31T13:19:36;22.00;99.90
15625;DHT22;7912;51.376;6.126;2022-10-31T13:22:18;22.00;99.90
15625;DHT22;7912;51.376;6.126;2022-10-31T13:27:59;22.00;99.90
15625;DHT22;7912;51.376;6.126;2022-10-31T13:37:41;22.10;99.90
15625;DHT22;7912;51.376;6.126;2022-10-31T13:40:44;22.10;99.90
15625;DHT22;7912;51.376;6.126;2022-10-31T13:46:01;22.10;99.90
15625;DHT22;7912;51.376;6.126;2022-10-31T13:48:35;22.20;99.90
15625;DHT22;7912;51.376;6.126;2022-10-31T13:51:08;22.20;99.90
15625;DHT22;7912;51.376;6.126;2022-10-31T13:56:27;22.20;99.90
15625;DHT22;7912;51.376;6.126;2022-10-31T14:01:36;22.30;99.90
15625;DHT22;7912;51.376;6.126;2022-10-31T14:04:21;22.40;99.90
15625;DHT22;7912;51.376;6.126;2022-10-31T14:07:07;22.50;99.90
15625;DHT22;7912;51.376;6.126;2022-10-31T14:12:43;22.60;99.90
15625;DHT22;7912;51.376;6.126;2022-10-31T14:17:54;22.80;99.90
15625;DHT22;7912;51.376;6.126;2022-10-31T14:20:42;22.80;99.90
15625;DHT22;7912;51.376;6.126;2022-10-31T14:23:39;22.90;99.90
15625;DHT22;7912;51.376;6.126;2022-10-31T14:28:56;23.10;99.90
15625;DHT22;7912;51.376;6.126;2022-10-31T14:31:41;23.20;99.90
15625;DHT22;7912;51.376;6.126;2022-10-31T14:34:33;23.30;99.90
15625;DHT22;7912;51.376;6.126;2022-10-31T14:40:51;23.70;99.60
15625;DHT22;7912;51.376;6.126;2022-10-31T14:43:41;23.80;99.60
15625;DHT22;7912;51.376;6.126;2022-10-31T14:51:52;23.90;98.50
15625;DHT22;7912;51.376;6.126;2022-10-31T14:54:27;23.80;98.60
15625;DHT22;7912;51.376;6.126;2022-10-31T14:57:16;23.70;98.20
15625;DHT22;7912;51.376;6.126;2022-10-31T15:00:02;23.70;98.30
15625;DHT22;7912;51.376;6.126;2022-10-31T15:02:43;23.60;98.40
15625;DHT22;7912;51.376;6.126;2022-10-31T15:05:35;23.40;98.40
15625;DHT22;7912;51.376;6.126;2022-10-31T15:08:43;23.30;98.60
15625;DHT22;7912;51.376;6.126;2022-10-31T15:11:21;23.20;98.50
15625;DHT22;7912;51.376;6.126;2022-10-31T15:13:54;23.10;98.60
15625;DHT22;7912;51.376;6.126;2022-10-31T15:16:30;23.00;98.80
15625;DHT22;7912;51.376;6.126;2022-10-31T15:19:06;22.80;98.90
15625;DHT22;7912;51.376;6.126;2022-10-31T15:21:41;22.70;99.10
15625;DHT22;7912;51.376;6.126;2022-10-31T15:24:15;22.60;98.90
15625;DHT22;7912;51.376;6.126;2022-10-31T15:26:48;22.50;99.40
15625;DHT22;7912;51.376;6.126;2022-10-31T15:29:24;22.40;99.10
15625;DHT22;7912;51.376;6.126;2022-10-31T15:34:44;22.10;99.30
15625;DHT22;7912;51.376;6.126;2022-10-31T15:37:17;22.00;99.60
15625;DHT22;7912;51.376;6.126;2022-10-31T15:39:47;21.90;99.80
15625;DHT22;7912;51.376;6.126;2022-10-31T15:42:43;21.80;99.90
15625;DHT22;7912;51.376;6.126;2022-10-31T15:47:38;21.60;99.90
15625;DHT22;7912;51.376;6.126;2022-10-31T15:50:26;21.60;99.90
15625;DHT22;7912;51.376;6.126;2022-10-31T15:52:59;21.50;99.90
15625;DHT22;7912;51.376;6.126;2022-10-31T15:55:30;21.50;99.90
15625;DHT22;7912;51.376;6.126;2022-10-31T15:58:14;21.40;99.90
15625;DHT22;7912;51.376;6.126;2022-10-31T16:00:44;21.30;99.90
15625;DHT22;7912;51.376;6.126;2022-10-31T16:03:29;21.30;99.90
15625;DHT22;7912;51.376;6.126;2022-10-31T16:06:01;21.20;99.90
15625;DHT22;7912;51.376;6.126;2022-10-31T16:08:36;21.10;99.90
15625;DHT22;7912;51.376;6.126;2022-10-31T16:13:59;21.00;99.90
15625;DHT22;7912;51.376;6.126;2022-10-31T16:16:46;20.90;99.90
15625;DHT22;7912;51.376;6.126;2022-10-31T16:19:24;20.80;99.90
15625;DHT22;7912;51.376;6.126;2022-10-31T16:22:11;20.80;99.90
15625;DHT22;7912;51.376;6.126;2022-10-31T16:24:51;20.70;99.90
15625;DHT22;7912;51.376;6.126;2022-10-31T16:27:25;20.70;99.90
15625;DHT22;7912;51.376;6.126;2022-10-31T16:30:00;20.60;99.90
15625;DHT22;7912;51.376;6.126;2022-10-31T16:37:42;20.50;99.90
15625;DHT22;7912;51.376;6.126;2022-10-31T16:40:12;20.40;99.90
15625;DHT22;7912;51.376;6.126;2022-10-31T16:42:42;20.40;99.90
15625;DHT22;7912;51.376;6.126;2022-10-31T16:45:31;20.40;99.90
15625;DHT22;7912;51.376;6.126;2022-10-31T16:48:06;20.30;99.90
15625;DHT22;7912;51.376;6.126;2022-10-31T16:50:38;20.30;99.90
15625;DHT22;7912;51.376;6.126;2022-10-31T16:53:06;20.30;99.90
15625;DHT22;7912;51.376;6.126;2022-10-31T16:55:54;20.20;99.90
15625;DHT22;7912;51.376;6.126;2022-10-31T16:58:27;20.20;99.90
15625;DHT22;7912;51.376;6.126;2022-10-31T17:01:01;20.20;99.90
15625;DHT22;7912;51.376;6.126;2022-10-31T17:03:32;20.20;99.90
15625;DHT22;7912;51.376;6.126;2022-10-31T17:06:02;20.10;99.90
15625;DHT22;7912;51.376;6.126;2022-10-31T17:08:31;20.10;99.90
15625;DHT22;7912;51.376;6.126;2022-10-31T17:14:48;20.10;99.90
15625;DHT22;7912;51.376;6.126;2022-10-31T17:17:19;20.10;99.90
15625;DHT22;7912;51.376;6.126;2022-10-31T17:19:47;20.00;99.90
15625;DHT22;7912;51.376;6.126;2022-10-31T17:22:15;20.00;99.90
15625;DHT22;7912;51.376;6.126;2022-10-31T17:24:43;20.00;99.90
15625;DHT22;7912;51.376;6.126;2022-10-31T17:27:11;20.00;99.90
15625;DHT22;7912;51.376;6.126;2022-10-31T17:29:43;20.00;99.90
15625;DHT22;7912;51.376;6.126;2022-10-31T17:32:11;20.00;99.90
15625;DHT22;7912;51.376;6.126;2022-10-31T17:34:40;20.00;99.90
15625;DHT22;7912;51.376;6.126;2022-10-31T17:37:10;20.00;99.90
15625;DHT22;7912;51.376;6.126;2022-10-31T17:39:38;19.90;99.90
15625;DHT22;7912;51.376;6.126;2022-10-31T17:42:07;19.90;99.90
15625;DHT22;7912;51.376;6.126;2022-10-31T17:44:34;19.90;99.90
15625;DHT22;7912;51.376;6.126;2022-10-31T17:47:02;19.90;99.90
15625;DHT22;7912;51.376;6.126;2022-10-31T17:49:30;19.90;99.90
15625;DHT22;7912;51.376;6.126;2022-10-31T17:51:58;19.90;99.90
15625;DHT22;7912;51.376;6.126;2022-10-31T17:54:25;19.80;99.90
15625;DHT22;7912;51.376;6.126;2022-10-31T17:56:53;19.80;99.90
15625;DHT22;7912;51.376;6.126;2022-10-31T17:59:21;19.80;99.90
15625;DHT22;7912;51.376;6.126;2022-10-31T18:01:49;19.80;99.90
15625;DHT22;7912;51.376;6.126;2022-10-31T18:04:20;19.70;99.90
15625;DHT22;7912;51.376;6.126;2022-10-31T18:06:48;19.70;99.90
15625;DHT22;7912;51.376;6.126;2022-10-31T18:09:17;19.70;99.90
15625;DHT22;7912;51.376;6.126;2022-10-31T18:11:45;19.70;99.90
15625;DHT22;7912;51.376;6.126;2022-10-31T18:14:13;19.60;99.90
15625;DHT22;7912;51.376;6.126;2022-10-31T18:16:40;19.60;99.90
15625;DHT22;7912;51.376;6.126;2022-10-31T18:19:12;19.50;99.90
15625;DHT22;7912;51.376;6.126;2022-10-31T18:21:43;19.50;99.90
15625;DHT22;7912;51.376;6.126;2022-10-31T18:24:12;19.50;99.90
15625;DHT22;7912;51.376;6.126;2022-10-31T18:26:39;19.40;99.90
15625;DHT22;7912;51.376;6.126;2022-10-31T18:29:08;19.30;99.90
15625;DHT22;7912;51.376;6.126;2022-10-31T18:31:37;19.30;99.90
15625;DHT22;7912;51.376;6.126;2022-10-31T18:34:04;19.30;99.90
15625;DHT22;7912;51.376;6.126;2022-10-31T18:36:32;19.30;99.90
15625;DHT22;7912;51.376;6.126;2022-10-31T18:38:59;19.20;99.90
15625;DHT22;7912;51.376;6.126;2022-10-31T18:41:26;19.20;99.90
15625;DHT22;7912;51.376;6.126;2022-10-31T18:43:56;19.20;99.90
15625;DHT22;7912;51.376;6.126;2022-10-31T18:46:26;19.10;99.90
15625;DHT22;7912;51.376;6.126;2022-10-31T18:48:54;19.10;99.90
15625;DHT22;7912;51.376;6.126;2022-10-31T18:51:21;19.10;99.90
15625;DHT22;7912;51.376;6.126;2022-10-31T18:53:59;19.10;99.90
15625;DHT22;7912;51.376;6.126;2022-10-31T18:56:29;19.00;99.90
15625;DHT22;7912;51.376;6.126;2022-10-31T18:58:59;19.00;99.90
15625;DHT22;7912;51.376;6.126;2022-10-31T19:01:30;19.00;99.90
15625;DHT22;7912;51.376;6.126;2022-10-31T19:03:58;19.00;99.90